createdAt,value
2019-04-27T00:00:49.146Z,17.32
2019-04-27T00:03:28.145Z,11.48
2019-04-27T00:05:58.464Z,14.40
2019-04-27T00:08:38.798Z,10.90
2019-04-27T00:11:23.089Z,13.78
2019-04-27T00:13:53.580Z,14.50
2019-04-27T00:16:33.850Z,14.60
2019-04-27T00:19:06.964Z,14.35
2019-04-27T00:21:37.280Z,14.75
2019-04-27T00:24:06.031Z,14.28
2019-04-27T00:26:34.706Z,14.45
2019-04-27T00:29:03.865Z,15.30
2019-04-27T00:31:33.657Z,14.75
2019-04-27T00:34:03.617Z,14.98
2019-04-27T00:36:39.996Z,20.05
2019-04-27T00:39:18.980Z,16.23
2019-04-27T00:41:47.729Z,14.93
2019-04-27T00:44:16.433Z,16.55
2019-04-27T00:46:45.245Z,15.20
2019-04-27T00:49:14.061Z,16.23
2019-04-27T00:51:43.391Z,15.63
2019-04-27T00:54:13.585Z,15.90
2019-04-27T00:56:46.853Z,15.95
2019-04-27T00:59:34.857Z,16.60
2019-04-27T01:02:17.284Z,15.03
2019-04-27T01:04:46.191Z,16.30
2019-04-27T01:07:14.940Z,16.45
2019-04-27T01:09:43.704Z,16.37
2019-04-27T01:12:14.097Z,15.05
2019-04-27T01:14:45.026Z,16.02
2019-04-27T01:17:13.183Z,16.67
2019-04-27T01:19:41.921Z,16.90
2019-04-27T01:22:10.669Z,16.20
2019-04-27T01:24:39.345Z,17.42
2019-04-27T01:27:12.794Z,17.23
2019-04-27T01:29:42.406Z,15.48
2019-04-27T01:32:12.721Z,16.05
2019-04-27T01:34:41.402Z,16.85
2019-04-27T01:37:10.151Z,17.00
2019-04-27T01:39:38.905Z,16.57
2019-04-27T01:42:08.914Z,16.75
2019-04-27T01:44:39.360Z,17.35
2019-04-27T01:47:08.634Z,16.55
2019-04-27T01:49:39.704Z,19.32
2019-04-27T01:52:09.595Z,19.77
2019-04-27T01:54:39.266Z,18.20
2019-04-27T01:57:10.274Z,19.27
2019-04-27T01:59:39.205Z,19.65
2019-04-27T02:02:29.279Z,19.17
2019-04-27T02:05:15.380Z,19.77
2019-04-27T02:07:44.797Z,21.00
2019-04-27T02:10:14.828Z,22.30
2019-04-27T02:12:44.102Z,22.07
2019-04-27T02:15:13.218Z,20.25
2019-04-27T02:17:41.961Z,20.15
2019-04-27T02:20:10.808Z,19.48
2019-04-27T02:22:39.565Z,19.70
2019-04-27T02:25:09.025Z,18.52
2019-04-27T02:27:39.394Z,22.07
2019-04-27T02:30:26.419Z,20.32
2019-04-27T02:32:56.745Z,20.52
2019-04-27T02:35:25.350Z,21.07
2019-04-27T02:37:54.030Z,19.52
2019-04-27T02:40:51.154Z,20.85
2019-04-27T02:43:24.416Z,21.12
2019-04-27T02:45:53.110Z,21.60
2019-04-27T02:48:21.853Z,20.82
2019-04-27T02:50:52.165Z,21.00
2019-04-27T02:53:22.553Z,21.23
2019-04-27T02:55:51.230Z,21.27
2019-04-27T02:58:21.403Z,20.60
2019-04-27T03:00:50.354Z,21.60
2019-04-27T03:03:20.399Z,20.70
2019-04-27T03:05:50.316Z,20.92
2019-04-27T03:08:19.999Z,20.67
2019-04-27T03:10:50.404Z,21.15
2019-04-27T03:13:20.819Z,20.12
2019-04-27T03:15:51.133Z,22.07
2019-04-27T03:18:40.101Z,19.95
2019-04-27T03:21:10.340Z,20.45
2019-04-27T03:23:41.253Z,20.37
2019-04-27T03:26:11.687Z,21.20
2019-04-27T03:28:40.505Z,22.87
2019-04-27T03:31:13.552Z,20.68
2019-04-27T03:33:43.022Z,15.23
2019-04-27T03:36:13.029Z,21.55
2019-04-27T03:38:40.553Z,21.62
2019-04-27T03:41:09.657Z,21.62
2019-04-27T03:43:40.185Z,23.25
2019-04-27T03:46:10.297Z,23.42
2019-04-27T03:48:40.779Z,23.73
2019-04-27T03:51:14.524Z,21.93
2019-04-27T03:53:44.838Z,22.40
2019-04-27T03:56:32.949Z,23.55
2019-04-27T03:59:10.151Z,23.70
2019-04-27T04:01:39.765Z,22.48
2019-04-27T04:04:10.420Z,23.95
2019-04-27T04:06:39.950Z,23.67
2019-04-27T04:09:10.354Z,23.07
2019-04-27T04:11:40.782Z,22.90
2019-04-27T04:14:11.165Z,23.65
2019-04-27T04:16:41.478Z,23.32
2019-04-27T04:19:11.090Z,23.47
2019-04-27T04:21:40.275Z,23.10
2019-04-27T04:24:11.657Z,23.22
2019-04-27T04:26:40.293Z,23.27
2019-04-27T04:29:10.406Z,22.93
2019-04-27T04:31:40.341Z,23.62
2019-04-27T04:34:11.952Z,22.22
2019-04-27T04:36:42.589Z,21.52
2019-04-27T04:39:12.286Z,21.20
2019-04-27T04:41:43.594Z,20.77
2019-04-27T04:44:23.020Z,20.85
2019-04-27T04:46:53.356Z,20.55
2019-04-27T04:49:22.098Z,20.97
2019-04-27T04:51:50.773Z,19.57
2019-04-27T04:54:19.849Z,20.52
2019-04-27T04:56:49.931Z,19.70
2019-04-27T04:59:20.132Z,20.62
2019-04-27T05:01:49.915Z,20.45
2019-04-27T05:04:19.323Z,20.17
2019-04-27T05:06:49.194Z,18.48
2019-04-27T05:09:19.353Z,18.87
2019-04-27T05:11:48.668Z,18.62
2019-04-27T05:14:17.512Z,17.32
2019-04-27T05:16:46.117Z,18.85
2019-04-27T05:19:14.727Z,18.27
2019-04-27T05:21:43.473Z,17.87
2019-04-27T05:24:12.160Z,17.95
2019-04-27T05:26:40.901Z,16.62
2019-04-27T05:29:09.594Z,17.45
2019-04-27T05:31:38.801Z,17.87
2019-04-27T05:34:09.344Z,15.95
2019-04-27T05:36:41.690Z,15.13
2019-04-27T05:39:10.066Z,16.45
2019-04-27T05:41:41.473Z,16.35
2019-04-27T05:44:11.200Z,17.12
2019-04-27T05:46:42.538Z,17.25
2019-04-27T05:49:21.693Z,18.05
2019-04-27T05:51:50.360Z,17.00
2019-04-27T05:54:19.785Z,16.93
2019-04-27T05:56:49.216Z,22.15
2019-04-27T05:59:19.746Z,15.75
2019-04-27T06:01:49.148Z,15.25
2019-04-27T06:04:19.339Z,15.27
2019-04-27T06:06:49.687Z,16.55
2019-04-27T06:09:19.424Z,15.25
2019-04-27T06:11:50.285Z,15.58
2019-04-27T06:14:19.217Z,15.28
2019-04-27T06:16:50.950Z,15.93
2019-04-27T06:19:19.377Z,14.83
2019-04-27T06:21:49.844Z,14.47
2019-04-27T06:24:18.704Z,15.35
2019-04-27T06:26:49.632Z,13.90
2019-04-27T06:29:19.378Z,23.50
2019-04-27T06:31:49.621Z,16.80
2019-04-27T06:34:19.393Z,16.62
2019-04-27T06:36:48.638Z,16.57
2019-04-27T06:39:20.249Z,16.75
2019-04-27T06:41:49.034Z,16.62
2019-04-27T06:44:19.479Z,17.40
2019-04-27T06:46:48.975Z,16.85
2019-04-27T06:49:19.319Z,15.05
2019-04-27T06:51:49.627Z,17.40
2019-04-27T06:54:21.066Z,16.95
2019-04-27T06:56:48.934Z,19.25
2019-04-27T06:59:18.631Z,16.40
2019-04-27T07:01:48.866Z,16.37
2019-04-27T07:04:19.447Z,15.20
2019-04-27T07:09:19.344Z,14.85
2019-04-27T07:11:49.433Z,14.23
2019-04-27T07:14:19.698Z,14.13
2019-04-27T07:16:48.846Z,14.38
2019-04-27T07:19:19.093Z,15.18
2019-04-27T07:21:49.645Z,14.95
2019-04-27T07:24:19.628Z,13.70
2019-04-27T07:26:49.305Z,15.08
2019-04-27T07:29:19.426Z,14.30
2019-04-27T07:31:49.609Z,13.65
2019-04-27T07:34:18.987Z,14.28
2019-04-27T07:36:49.131Z,14.18
2019-04-27T07:39:19.204Z,14.10
2019-04-27T07:41:48.777Z,14.03
2019-04-27T07:44:19.439Z,12.45
2019-04-27T07:46:49.903Z,13.62
2019-04-27T07:49:19.030Z,12.80
2019-04-27T07:51:49.066Z,19.70
2019-04-27T07:54:18.929Z,12.05
2019-04-27T07:56:48.842Z,12.30
2019-04-27T07:59:18.881Z,15.10
2019-04-27T08:01:49.135Z,12.35
2019-04-27T08:04:18.807Z,13.85
2019-04-27T08:06:47.583Z,12.55
2019-04-27T08:09:16.280Z,13.10
2019-04-27T08:11:45.454Z,11.80
2019-04-27T08:14:14.136Z,13.18
2019-04-27T08:16:42.882Z,12.60
2019-04-27T08:19:11.488Z,13.25
2019-04-27T08:21:44.388Z,14.00
2019-04-27T08:24:11.206Z,11.38
2019-04-27T08:26:47.777Z,12.90
2019-04-27T08:29:32.835Z,12.68
2019-04-27T08:32:07.609Z,12.55
2019-04-27T08:34:39.788Z,11.48
2019-04-27T08:37:09.174Z,11.85
2019-04-27T08:39:39.521Z,11.83
2019-04-27T08:42:09.546Z,11.40
2019-04-27T08:44:39.710Z,12.63
2019-04-27T08:47:09.601Z,12.73
2019-04-27T08:49:39.390Z,12.87
2019-04-27T08:52:09.360Z,11.83
2019-04-27T08:54:39.404Z,12.07
2019-04-27T08:57:09.730Z,10.03
2019-04-27T08:59:39.300Z,11.75
2019-04-27T09:02:08.771Z,11.43
2019-04-27T09:04:39.293Z,11.55
2019-04-27T09:07:26.061Z,11.35
2019-04-27T09:09:59.642Z,11.73
2019-04-27T09:12:50.119Z,10.48
2019-04-27T09:15:20.258Z,9.40
2019-04-27T09:17:58.931Z,9.95
2019-04-27T09:20:29.333Z,10.72
2019-04-27T09:22:59.230Z,11.60
2019-04-27T09:25:30.337Z,10.72
2019-04-27T09:27:59.709Z,10.65
2019-04-27T09:30:29.829Z,9.78
2019-04-27T09:32:58.870Z,10.80
2019-04-27T09:35:27.738Z,10.38
2019-04-27T09:37:56.476Z,9.30
2019-04-27T09:40:26.742Z,10.13
2019-04-27T09:42:57.242Z,8.90
2019-04-27T09:45:27.106Z,8.45
2019-04-27T09:47:56.394Z,7.83
2019-04-27T09:50:27.971Z,8.63
2019-04-27T09:52:55.832Z,8.03
2019-04-27T09:55:26.329Z,9.13
2019-04-27T09:57:56.904Z,8.30
2019-04-27T10:00:27.622Z,9.23
2019-04-27T10:02:56.575Z,10.45
2019-04-27T10:05:26.343Z,7.95
2019-04-27T10:07:56.759Z,8.80
2019-04-27T10:10:26.783Z,8.40
2019-04-27T10:12:56.767Z,8.48
2019-04-27T10:15:26.709Z,10.32
2019-04-27T10:17:56.011Z,8.05
2019-04-27T10:20:25.857Z,9.90
2019-04-27T10:22:56.130Z,8.90
2019-04-27T10:25:26.644Z,9.13
2019-04-27T10:27:58.202Z,10.60
2019-04-27T10:30:27.207Z,9.90
2019-04-27T10:32:55.955Z,9.38
2019-04-27T10:35:26.040Z,9.93
2019-04-27T10:37:54.844Z,8.68
2019-04-27T10:40:23.520Z,8.85
2019-04-27T10:42:52.272Z,9.45
2019-04-27T10:45:21.008Z,8.23
2019-04-27T10:47:49.790Z,7.90
2019-04-27T10:50:19.134Z,8.83
2019-04-27T10:52:53.633Z,9.50
2019-04-27T10:55:18.276Z,8.35
2019-04-27T10:57:47.016Z,9.20
2019-04-27T11:00:17.512Z,8.20
2019-04-27T11:02:46.258Z,8.30
2019-04-27T11:05:20.338Z,17.42
2019-04-27T11:07:49.159Z,19.00
2019-04-27T11:10:17.934Z,21.42
2019-04-27T11:12:46.604Z,23.15
2019-04-27T11:15:16.377Z,18.73
2019-04-27T11:17:45.827Z,18.90
2019-04-27T11:20:16.062Z,13.15
2019-04-27T11:22:46.363Z,11.88
2019-04-27T11:25:16.458Z,12.20
2019-04-27T11:27:45.130Z,12.33
2019-04-27T11:30:15.786Z,13.20
2019-04-27T11:32:44.434Z,11.70
2019-04-27T11:35:21.810Z,11.10
2019-04-27T11:37:52.399Z,10.78
2019-04-27T11:40:22.354Z,11.22
2019-04-27T11:42:51.037Z,12.47
2019-04-27T11:45:19.781Z,11.43
2019-04-27T11:47:48.457Z,11.65
2019-04-27T11:50:17.607Z,13.25
2019-04-27T11:52:46.292Z,12.50
2019-04-27T11:55:17.337Z,13.43
2019-04-27T11:57:47.046Z,11.48
2019-04-27T12:00:19.206Z,12.23
2019-04-27T12:02:47.896Z,12.23
2019-04-27T12:05:16.650Z,11.28
2019-04-27T12:07:47.451Z,10.25
2019-04-27T12:10:15.967Z,10.23
2019-04-27T12:12:46.210Z,11.15
2019-04-27T12:15:17.881Z,11.05
2019-04-27T12:17:46.626Z,10.53
2019-04-27T12:20:15.952Z,10.25
2019-04-27T12:22:46.001Z,9.65
2019-04-27T12:25:15.057Z,10.03
2019-04-27T12:28:01.662Z,10.40
2019-04-27T12:30:32.049Z,10.58
2019-04-27T12:33:00.792Z,10.03
2019-04-27T12:35:29.418Z,10.38
2019-04-27T12:37:58.353Z,9.58
2019-04-27T12:40:27.105Z,10.35
2019-04-27T12:42:55.845Z,10.45
2019-04-27T12:45:26.550Z,10.00
2019-04-27T12:47:56.625Z,10.28
2019-04-27T12:50:26.128Z,10.25
2019-04-27T12:52:56.627Z,10.85
2019-04-27T12:55:41.584Z,9.70
2019-04-27T12:58:20.975Z,10.18
2019-04-27T13:00:54.140Z,11.12
2019-04-27T13:03:22.899Z,11.55
2019-04-27T13:05:51.499Z,11.18
2019-04-27T13:08:20.240Z,9.58
2019-04-27T13:10:48.848Z,10.82
2019-04-27T13:13:17.593Z,12.18
2019-04-27T13:15:46.613Z,9.95
2019-04-27T13:18:16.728Z,9.95
2019-04-27T13:20:45.505Z,10.40
2019-04-27T13:23:14.254Z,11.33
2019-04-27T13:25:43.896Z,9.40
2019-04-27T13:28:12.664Z,9.45
2019-04-27T13:30:41.265Z,10.45
2019-04-27T13:33:10.005Z,9.43
2019-04-27T13:35:38.756Z,11.05
2019-04-27T13:38:07.433Z,9.95
2019-04-27T13:40:37.817Z,9.50
2019-04-27T13:43:16.862Z,9.03
2019-04-27T13:45:50.194Z,11.80
2019-04-27T13:48:23.218Z,10.45
2019-04-27T13:51:11.612Z,9.90
2019-04-27T13:53:40.289Z,9.28
2019-04-27T13:56:14.798Z,9.48
2019-04-27T13:58:44.347Z,9.20
2019-04-27T14:01:13.088Z,9.35
2019-04-27T14:03:41.834Z,9.43
2019-04-27T14:06:10.576Z,9.25
2019-04-27T14:08:39.257Z,9.40
2019-04-27T14:11:09.596Z,8.68
2019-04-27T14:13:39.096Z,9.58
2019-04-27T14:16:08.666Z,9.58
2019-04-27T14:18:38.453Z,9.48
2019-04-27T14:21:09.290Z,9.95
2019-04-27T14:23:38.624Z,9.03
2019-04-27T14:26:08.799Z,10.50
2019-04-27T14:28:37.566Z,9.35
2019-04-27T14:31:06.368Z,8.90
2019-04-27T14:33:34.990Z,10.23
2019-04-27T14:36:03.850Z,10.70
2019-04-27T14:38:32.546Z,10.13
2019-04-27T14:41:01.351Z,10.05
2019-04-27T14:43:29.968Z,10.98
2019-04-27T14:45:58.791Z,10.63
2019-04-27T14:48:29.307Z,10.45
2019-04-27T14:50:59.070Z,10.55
2019-04-27T14:53:28.300Z,9.98
2019-04-27T14:55:58.420Z,12.55
2019-04-27T14:58:28.324Z,10.85
2019-04-27T15:00:58.563Z,11.43
2019-04-27T15:03:27.439Z,11.18
2019-04-27T15:05:56.361Z,11.95
2019-04-27T15:08:25.615Z,11.78
2019-04-27T15:10:54.437Z,10.85
2019-04-27T15:13:23.185Z,11.45
2019-04-27T15:15:51.819Z,10.35
2019-04-27T15:18:20.474Z,10.50
2019-04-27T15:20:49.173Z,11.38
2019-04-27T15:23:17.920Z,9.75
2019-04-27T15:25:47.099Z,9.40
2019-04-27T15:28:17.616Z,8.73
2019-04-27T15:30:53.499Z,9.13
2019-04-27T15:33:40.144Z,9.30
2019-04-27T15:36:10.466Z,8.75
2019-04-27T15:38:42.957Z,8.65
2019-04-27T15:41:20.185Z,8.03
2019-04-27T15:43:48.944Z,8.70
2019-04-27T15:46:18.436Z,9.38
2019-04-27T15:48:48.751Z,10.32
2019-04-27T15:51:21.035Z,8.33
2019-04-27T15:53:52.563Z,10.30
2019-04-27T15:56:18.385Z,9.25
2019-04-27T15:58:48.319Z,8.98
2019-04-27T16:01:18.009Z,9.38
2019-04-27T16:03:48.197Z,9.25
2019-04-27T16:06:18.711Z,9.25
2019-04-27T16:08:49.204Z,10.32
2019-04-27T16:11:19.810Z,10.53
2019-04-27T16:13:48.768Z,9.63
2019-04-27T16:16:19.064Z,10.03
2019-04-27T16:18:49.110Z,9.20
2019-04-27T16:21:20.051Z,9.45
2019-04-27T16:23:48.230Z,8.45
2019-04-27T16:26:18.289Z,8.60
2019-04-27T16:28:52.810Z,9.23
2019-04-27T16:31:18.724Z,8.95
2019-04-27T16:33:49.573Z,9.43
2019-04-27T16:36:19.729Z,9.75
2019-04-27T16:38:50.178Z,10.75
2019-04-27T16:41:18.925Z,8.73
2019-04-27T16:43:49.020Z,9.03
2019-04-27T16:46:21.046Z,8.33
2019-04-27T16:48:48.183Z,8.33
2019-04-27T16:51:18.357Z,8.18
2019-04-27T16:53:47.274Z,8.93
2019-04-27T16:56:18.304Z,7.53
2019-04-27T16:58:48.960Z,8.13
2019-04-27T17:01:18.515Z,8.15
2019-04-27T17:03:48.523Z,8.83
2019-04-27T17:06:19.103Z,9.10
2019-04-27T17:08:49.611Z,8.38
2019-04-27T17:11:19.542Z,9.68
2019-04-27T17:13:52.117Z,9.35
2019-04-27T17:16:34.089Z,9.80
2019-04-27T17:19:06.105Z,9.75
2019-04-27T17:21:38.657Z,9.85
2019-04-27T17:24:05.341Z,9.30
2019-04-27T17:26:35.440Z,8.90
2019-04-27T17:29:16.516Z,9.13
2019-04-27T17:31:44.830Z,10.98
2019-04-27T17:34:13.509Z,9.35
2019-04-27T17:36:42.125Z,9.40
2019-04-27T17:39:10.976Z,9.18
2019-04-27T17:41:41.724Z,9.45
2019-04-27T17:44:12.705Z,7.05
2019-04-27T17:46:42.730Z,9.33
2019-04-27T17:49:10.644Z,9.78
2019-04-27T17:51:43.000Z,10.08
2019-04-27T17:54:11.377Z,10.35
2019-04-27T17:56:48.370Z,10.40
2019-04-27T17:59:17.065Z,11.15
2019-04-27T18:01:40.954Z,10.70
2019-04-27T18:04:10.720Z,9.75
2019-04-27T18:06:39.457Z,9.78
2019-04-27T18:09:10.149Z,10.00
2019-04-27T18:11:38.824Z,9.95
2019-04-27T18:14:09.449Z,10.23
2019-04-27T18:16:38.081Z,11.75
2019-04-27T18:19:11.829Z,12.68
2019-04-27T18:21:42.329Z,14.60
2019-04-27T18:24:12.712Z,11.00
2019-04-27T18:26:49.330Z,12.37
2019-04-27T18:29:13.365Z,11.68
2019-04-27T18:31:42.044Z,11.65
2019-04-27T18:34:14.976Z,12.88
2019-04-27T18:36:43.832Z,12.73
2019-04-27T18:39:13.704Z,12.58
2019-04-27T18:41:49.274Z,13.83
2019-04-27T18:44:12.171Z,13.65
2019-04-27T18:46:40.919Z,13.55
2019-04-27T18:49:11.240Z,15.35
2019-04-27T18:51:44.583Z,16.27
2019-04-27T18:54:13.330Z,14.20
2019-04-27T18:56:42.092Z,15.10
2019-04-27T18:59:10.776Z,14.58
2019-04-27T19:01:39.528Z,13.70
2019-04-27T19:04:08.771Z,12.78
2019-04-27T19:06:39.151Z,13.50
2019-04-27T19:09:08.367Z,12.47
2019-04-27T19:11:38.292Z,12.88
2019-04-27T19:14:08.333Z,12.70
2019-04-27T19:16:38.346Z,13.13
2019-04-27T19:19:08.652Z,11.87
2019-04-27T19:21:39.222Z,14.58
2019-04-27T19:24:08.885Z,13.72
2019-04-27T19:26:39.549Z,14.43
2019-04-27T19:29:12.605Z,13.70
2019-04-27T19:31:43.005Z,13.18
2019-04-27T19:34:11.749Z,13.78
2019-04-27T19:36:40.497Z,13.30
2019-04-27T19:39:13.803Z,13.25
2019-04-27T19:41:41.521Z,13.08
2019-04-27T19:44:10.263Z,14.23
2019-04-27T19:46:40.272Z,12.13
2019-04-27T19:49:08.957Z,13.43
2019-04-27T19:51:39.236Z,12.58
2019-04-27T19:54:09.070Z,13.83
2019-04-27T19:56:38.419Z,12.45
2019-04-27T19:59:09.012Z,12.00
2019-04-27T20:01:42.087Z,14.53
2019-04-27T20:04:12.338Z,12.88
2019-04-27T20:06:41.158Z,13.85
2019-04-27T20:09:20.572Z,13.13
2019-04-27T20:11:49.317Z,13.53
2019-04-27T20:14:18.028Z,12.65
2019-04-27T20:16:46.703Z,11.43
2019-04-27T20:19:15.453Z,13.10
2019-04-27T20:21:44.144Z,11.78
2019-04-27T20:24:12.893Z,12.07
2019-04-27T20:26:41.572Z,12.70
2019-04-27T20:29:11.812Z,11.83
2019-04-27T20:31:41.084Z,11.50
2019-04-27T20:34:09.871Z,11.85
2019-04-27T20:36:38.503Z,11.18
2019-04-27T20:39:07.538Z,11.43
2019-04-27T20:41:36.133Z,13.08
2019-04-27T20:44:05.173Z,10.93
2019-04-27T20:46:33.928Z,11.00
2019-04-27T20:49:04.317Z,11.93
2019-04-27T20:51:50.948Z,10.88
2019-04-27T20:54:21.646Z,10.85
2019-04-27T20:56:53.212Z,10.82
2019-04-27T20:59:22.081Z,11.73
2019-04-27T21:01:50.816Z,11.15
2019-04-27T21:04:21.205Z,11.08
2019-04-27T21:06:51.455Z,11.95
2019-04-27T21:09:21.327Z,12.70
2019-04-27T21:11:50.090Z,11.30
2019-04-27T21:14:18.841Z,12.30
2019-04-27T21:16:47.952Z,12.70
2019-04-27T21:19:16.703Z,10.40
2019-04-27T21:21:45.381Z,10.85
2019-04-27T21:24:14.136Z,10.30
2019-04-27T21:26:42.826Z,10.72
2019-04-27T21:29:11.725Z,10.50
2019-04-27T21:31:41.828Z,10.60
2019-04-27T21:34:10.638Z,11.45
2019-04-27T21:36:40.869Z,10.13
2019-04-27T21:39:11.486Z,13.08
2019-04-27T21:41:41.357Z,11.45
2019-04-27T21:44:11.551Z,9.70
2019-04-27T21:46:41.684Z,10.08
2019-04-27T21:49:11.197Z,10.13
2019-04-27T21:51:58.460Z,9.85
2019-04-27T21:54:28.776Z,9.90
2019-04-27T21:56:57.522Z,9.78
2019-04-27T21:59:26.128Z,9.65
2019-04-27T22:01:57.050Z,9.15
2019-04-27T22:06:53.633Z,11.12
2019-04-27T22:09:22.377Z,9.65
2019-04-27T22:11:51.176Z,9.23
2019-04-27T22:14:21.566Z,9.25
2019-04-27T22:16:51.834Z,8.85
2019-04-27T22:19:22.294Z,8.85
2019-04-27T22:21:52.049Z,9.60
2019-04-27T22:24:22.505Z,8.70
2019-04-27T22:26:51.764Z,8.85
2019-04-27T22:29:22.148Z,8.05
2019-04-27T22:31:51.644Z,7.78
2019-04-27T22:34:21.060Z,7.97
2019-04-27T22:36:49.836Z,9.58
2019-04-27T22:39:20.851Z,7.97
2019-04-27T22:42:03.139Z,8.48
2019-04-27T22:44:36.072Z,8.40
2019-04-27T22:47:04.894Z,8.93
2019-04-27T22:49:33.568Z,9.18
2019-04-27T22:52:02.388Z,8.40
2019-04-27T22:54:31.928Z,8.80
2019-04-27T22:57:02.455Z,8.60
2019-04-27T22:59:32.765Z,9.05
2019-04-27T23:02:03.077Z,9.23
2019-04-27T23:04:42.206Z,9.25
2019-04-27T23:07:11.192Z,8.45
2019-04-27T23:09:40.796Z,8.95
2019-04-27T23:12:11.957Z,8.88
2019-04-27T23:14:41.497Z,9.53
2019-04-27T23:17:22.525Z,9.20
2019-04-27T23:19:51.086Z,10.58
2019-04-27T23:22:21.391Z,9.43
2019-04-27T23:24:51.786Z,11.73
2019-04-27T23:27:21.588Z,10.85
2019-04-27T23:29:51.444Z,9.58
2019-04-27T23:32:28.023Z,10.38
2019-04-27T23:34:56.701Z,8.73
2019-04-27T23:37:25.373Z,9.90
2019-04-27T23:39:54.129Z,9.85
2019-04-27T23:42:22.877Z,8.78
2019-04-27T23:44:51.617Z,9.20
2019-04-27T23:47:20.380Z,9.05
2019-04-27T23:49:50.731Z,9.33
2019-04-27T23:52:21.260Z,9.53
2019-04-27T23:54:51.153Z,7.87
2019-04-27T23:57:21.738Z,8.70
2019-04-27T23:59:51.504Z,8.93
